holidayautos.co.uk alexa rank chart, holidayautos.co.uk alexa rank daily changes

holidayautos.co.uk alexa rank chart, holidayautos.co.uk alexa rank daily changes

holidayautos.co.uk
Actual rank:
165 776

RANK HISTORY

Date Rank Diff
2017/05/30 165 776 +3 281
2017/05/29 162 495 +8 552
2017/05/28 153 943 -112
2017/05/27 154 055 -582
2017/05/26 154 637 +2 723
2017/05/25 151 914 +4 931
2017/05/24 146 983 +12
2017/05/23 146 971 +574
2017/05/22 146 397 +48
2017/05/21 146 349 +1 799
2017/05/20 144 550 +383
2017/05/19 144 167 +1
2017/05/18 144 166 +786
2017/05/17 143 380 -1 466
2017/05/16 144 846 -863
2017/05/15 145 709 +3 275
2017/05/14 142 434 +20
2017/05/13 142 414 -143
2017/05/12 142 557 +5
2017/05/11 142 552 +1 248
2017/05/10 141 304 -1 100
2017/05/09 142 404 -435
2017/05/08 142 839 +731
2017/05/07 142 108 -2 392
2017/05/06 144 500 -2 206
2017/05/05 146 706 -491
2017/05/04 147 197 +3 307
2017/05/03 143 890 -3 870
2017/05/02 147 760 -1 739
2017/05/01 149 499 -3 173
2017/04/30 152 672 -3 128
2017/04/29 155 800 -6 326
2017/04/28 162 126 +3 254
2017/04/27 158 872 -2 999
2017/04/26 161 871 -2 245
2017/04/25 164 116 -4 923
2017/04/24 169 039 -3 769
2017/04/23 172 808 -1 878
2017/04/22 174 686 +551
2017/04/21 174 135 -702
2017/04/20 174 837 -2 013
2017/04/19 176 850 -266
2017/04/18 177 116 +1 577
2017/04/17 175 539 +715
2017/04/16 174 824 +1 461
2017/04/15 173 363 -4 925
2017/04/14 178 288 +63
2017/04/13 178 225 +211
2017/04/12 178 014 -1 838
2017/04/11 179 852 +1 732
2017/04/10 178 120 -1 232
2017/04/09 179 352 -926
2017/04/08 180 278 +932
2017/04/07 179 346 +1 553
2017/04/06 177 793 +254
2017/04/05 177 539 -5 473
2017/04/04 183 012 -5 232
2017/04/03 188 244 +584
2017/04/02 187 660 -552
2017/04/01 188 212 +4 459
2017/03/31 183 753

WIDGET FOR YOUR SITE

DOMAINS WITH THE NEAREST RANK

Domain Rank
apmessenger.com 165 771
kosei-do.com 165 772
outboundengine.com 165 773
biblija.net 165 774
btcflood.com 165 775
holidayautos.co.uk 165 776
corpautohome.com 165 777
trivago.fi 165 778
espace-personnel.fr 165 779
ad24.us 165 780
khandbahale.com 165 781

DOMAINS WITH THE NEAREST RANK BY TLD .co.uk

Domain Rank
mysurgerywebsite.co.uk 165 585
lothianbuses.co.uk 165 591
renaultforums.co.uk 165 659
octopus-hr.co.uk 165 737
voipfone.co.uk 165 767
holidayautos.co.uk 165 776
admiralmarkets.co.uk 165 852
lcegroup.co.uk 165 888
billetto.co.uk 165 936
rugbytots.co.uk 166 011
sarenza.co.uk 166 115